createdAt,value
2023-06-12T00:01:30.747Z,1.98
2023-06-12T00:03:58.782Z,2.30
2023-06-12T00:06:25.993Z,2.50
2023-06-12T00:08:53.045Z,2.60
2023-06-12T00:11:19.914Z,3.40
2023-06-12T00:13:49.014Z,2.08
2023-06-12T00:16:17.137Z,2.85
2023-06-12T00:18:44.751Z,2.40
2023-06-12T00:21:12.959Z,2.85
2023-06-12T00:23:41.191Z,4.72
2023-06-12T00:26:08.522Z,2.03
2023-06-12T00:28:35.468Z,3.35
2023-06-12T00:31:02.254Z,3.05
2023-06-12T00:33:29.229Z,4.85
2023-06-12T00:35:56.383Z,2.17
2023-06-12T00:38:23.836Z,3.08
2023-06-12T00:40:51.273Z,2.50
2023-06-12T00:43:18.503Z,2.95
2023-06-12T00:45:45.825Z,2.65
2023-06-12T00:48:12.887Z,2.50
2023-06-12T00:50:41.248Z,2.90
2023-06-12T00:53:09.186Z,2.30
2023-06-12T00:55:36.831Z,4.50
2023-06-12T00:58:04.702Z,3.30
2023-06-12T01:00:32.143Z,2.28
2023-06-12T01:03:07.028Z,4.60
2023-06-12T01:05:43.961Z,2.72
2023-06-12T01:08:27.620Z,4.32
2023-06-12T01:11:00.972Z,6.22
2023-06-12T01:13:28.132Z,2.42
2023-06-12T01:15:55.000Z,3.75
2023-06-12T01:18:22.374Z,2.67
2023-06-12T01:20:56.987Z,2.60
2023-06-12T01:23:33.273Z,3.25
2023-06-12T01:26:20.089Z,4.80
2023-06-12T01:28:56.840Z,2.53
2023-06-12T01:31:44.676Z,4.18
2023-06-12T01:34:17.562Z,4.03
2023-06-12T01:36:54.525Z,3.00
2023-06-12T01:39:24.372Z,4.15
2023-06-12T01:41:51.934Z,3.40
2023-06-12T01:44:21.829Z,3.13
2023-06-12T01:46:48.917Z,4.70
2023-06-12T01:49:15.825Z,3.63
2023-06-12T01:51:42.853Z,2.88
2023-06-12T01:54:09.670Z,5.03
2023-06-12T01:56:37.739Z,3.65
2023-06-12T01:59:05.625Z,4.25
2023-06-12T02:01:32.544Z,4.50
2023-06-12T02:03:59.943Z,7.10
2023-06-12T02:06:27.150Z,5.65
2023-06-12T02:08:55.139Z,2.90
2023-06-12T02:11:22.176Z,3.40
2023-06-12T02:13:49.032Z,3.08
2023-06-12T02:16:20.786Z,3.35
2023-06-12T02:21:15.122Z,3.15
2023-06-12T02:23:43.087Z,5.15
2023-06-12T02:26:10.026Z,3.78
2023-06-12T02:28:36.864Z,3.30
2023-06-12T02:31:04.693Z,4.35
2023-06-12T02:33:32.928Z,5.15
2023-06-12T02:35:59.841Z,4.60
2023-06-12T02:38:27.384Z,4.13
2023-06-12T02:40:54.212Z,4.50
2023-06-12T02:43:21.011Z,3.40
2023-06-12T02:45:47.995Z,4.13
2023-06-12T02:48:15.145Z,3.17
2023-06-12T02:50:41.999Z,3.35
2023-06-12T02:53:08.885Z,2.67
2023-06-12T02:55:40.934Z,2.85
2023-06-12T02:58:13.395Z,4.03
2023-06-12T03:00:40.687Z,4.63
2023-06-12T03:03:08.999Z,3.47
2023-06-12T03:05:37.326Z,5.90
2023-06-12T03:08:04.517Z,4.00
2023-06-12T03:10:31.507Z,3.65
2023-06-12T03:12:58.315Z,5.15
2023-06-12T03:15:25.588Z,3.63
2023-06-12T03:17:58.613Z,5.80
2023-06-12T03:20:26.051Z,4.70
2023-06-12T03:22:53.068Z,5.45
2023-06-12T03:25:20.294Z,3.63
2023-06-12T03:27:47.441Z,3.85
2023-06-12T03:30:14.649Z,3.47
2023-06-12T03:32:42.135Z,6.90
2023-06-12T03:35:09.613Z,3.80
2023-06-12T03:37:36.429Z,3.38
2023-06-12T03:40:04.728Z,6.25
2023-06-12T03:42:31.711Z,3.40
2023-06-12T03:44:58.562Z,4.15
2023-06-12T03:47:25.823Z,5.50
2023-06-12T03:49:52.692Z,5.68
2023-06-12T03:52:19.865Z,5.70
2023-06-12T03:54:46.957Z,4.72
2023-06-12T03:57:13.832Z,4.00
2023-06-12T03:59:43.112Z,8.88
2023-06-12T04:02:10.187Z,5.05
2023-06-12T04:04:37.106Z,3.95
2023-06-12T04:07:04.225Z,5.05
2023-06-12T04:09:31.627Z,4.13
2023-06-12T04:11:58.645Z,4.45
2023-06-12T04:14:25.756Z,3.50
2023-06-12T04:16:52.620Z,8.05
2023-06-12T04:19:19.446Z,6.30
2023-06-12T04:21:46.596Z,6.95
2023-06-12T04:24:20.670Z,3.65
2023-06-12T04:26:49.905Z,4.63
2023-06-12T04:29:17.780Z,4.03
2023-06-12T04:31:45.025Z,4.00
2023-06-12T04:34:17.613Z,3.88
2023-06-12T04:36:46.453Z,2.85
2023-06-12T04:39:14.884Z,4.03
2023-06-12T04:41:41.869Z,3.10
2023-06-12T04:44:09.541Z,3.40
2023-06-12T04:46:36.502Z,3.85
2023-06-12T04:49:04.060Z,3.00
2023-06-12T04:51:31.102Z,3.53
2023-06-12T04:53:58.531Z,5.40
2023-06-12T04:56:25.465Z,2.72
2023-06-12T04:58:52.316Z,3.58
2023-06-12T05:01:26.322Z,4.97
2023-06-12T05:03:54.017Z,6.80
2023-06-12T05:06:21.770Z,4.60
2023-06-12T05:08:49.324Z,4.90
2023-06-12T05:11:16.277Z,4.00
2023-06-12T05:13:43.169Z,4.22
2023-06-12T05:16:10.131Z,3.55
2023-06-12T05:18:37.161Z,5.85
2023-06-12T05:21:05.457Z,3.00
2023-06-12T05:23:32.268Z,2.63
2023-06-12T05:25:59.175Z,3.33
2023-06-12T05:28:26.421Z,3.50
2023-06-12T05:30:53.646Z,3.80
2023-06-12T05:33:21.655Z,3.22
2023-06-12T05:35:50.611Z,3.65
2023-06-12T05:38:17.745Z,4.07
2023-06-12T05:40:44.693Z,2.92
2023-06-12T05:43:11.721Z,7.05
2023-06-12T05:45:38.636Z,3.50
2023-06-12T05:48:06.143Z,5.15
2023-06-12T05:50:33.157Z,4.60
2023-06-12T05:53:00.032Z,7.28
2023-06-12T05:55:30.353Z,3.53
2023-06-12T05:57:57.794Z,4.80
2023-06-12T06:00:25.010Z,4.88
2023-06-12T06:02:53.296Z,4.18
2023-06-12T06:05:20.379Z,4.65
2023-06-12T06:07:51.519Z,3.95
2023-06-12T06:10:18.516Z,6.13
2023-06-12T06:12:45.339Z,6.25
2023-06-12T06:15:12.823Z,3.53
2023-06-12T06:17:39.890Z,2.70
2023-06-12T06:20:07.441Z,4.30
2023-06-12T06:22:34.286Z,2.92
2023-06-12T06:25:01.153Z,2.40
2023-06-12T06:27:27.996Z,4.85
2023-06-12T06:29:54.869Z,3.85
2023-06-12T06:32:22.489Z,3.08
2023-06-12T06:34:49.906Z,5.28
2023-06-12T06:37:18.801Z,2.70
2023-06-12T06:39:46.706Z,2.63
2023-06-12T06:42:13.821Z,3.38
2023-06-12T06:44:50.266Z,6.43
2023-06-12T06:47:20.972Z,4.28
2023-06-12T06:49:48.015Z,3.42
2023-06-12T06:52:43.667Z,5.85
2023-06-12T06:55:10.880Z,8.05
2023-06-12T06:57:40.606Z,6.68
2023-06-12T07:00:08.022Z,6.03
2023-06-12T07:02:35.125Z,5.65
2023-06-12T07:05:02.081Z,7.68
2023-06-12T07:07:29.051Z,4.00
2023-06-12T07:09:55.929Z,3.80
2023-06-12T07:12:25.308Z,8.63
2023-06-12T07:14:52.213Z,6.85
2023-06-12T07:17:19.076Z,3.55
2023-06-12T07:19:45.955Z,7.00
2023-06-12T07:22:12.774Z,4.20
2023-06-12T07:24:39.624Z,3.70
2023-06-12T07:27:06.519Z,3.65
2023-06-12T07:29:33.554Z,2.40
2023-06-12T07:32:00.721Z,5.07
2023-06-12T07:34:27.623Z,4.75
2023-06-12T07:36:54.483Z,4.50
2023-06-12T07:39:21.848Z,3.38
2023-06-12T07:41:48.747Z,6.15
2023-06-12T07:44:15.564Z,3.30
2023-06-12T07:46:43.584Z,3.13
2023-06-12T07:49:10.912Z,2.42
2023-06-12T07:51:38.268Z,3.95
2023-06-12T07:54:05.208Z,4.07
2023-06-12T07:56:34.051Z,5.53
2023-06-12T07:59:10.581Z,7.25
2023-06-12T08:01:38.020Z,5.10
2023-06-12T08:04:12.730Z,5.65
2023-06-12T08:06:42.570Z,4.25
2023-06-12T08:09:10.840Z,3.75
2023-06-12T08:11:41.624Z,3.55
2023-06-12T08:14:09.421Z,3.55
2023-06-12T08:16:36.521Z,4.32
2023-06-12T08:19:03.612Z,5.60
2023-06-12T08:21:33.481Z,7.32
2023-06-12T08:24:00.406Z,3.15
2023-06-12T08:26:28.126Z,4.90
2023-06-12T08:28:55.030Z,4.57
2023-06-12T08:31:22.405Z,6.95
2023-06-12T08:33:50.487Z,5.47
2023-06-12T08:36:17.489Z,4.80
2023-06-12T08:38:44.438Z,6.65
2023-06-12T08:41:11.304Z,6.40
2023-06-12T08:43:38.734Z,5.40
2023-06-12T08:46:06.127Z,3.28
2023-06-12T08:48:34.046Z,3.67
2023-06-12T08:51:04.045Z,3.88
2023-06-12T08:53:31.381Z,5.07
2023-06-12T08:55:58.725Z,4.70
2023-06-12T08:58:25.674Z,5.28
2023-06-12T09:00:52.924Z,10.30
2023-06-12T09:03:21.057Z,4.72
2023-06-12T09:05:48.662Z,4.15
2023-06-12T09:08:16.716Z,4.35
2023-06-12T09:10:44.309Z,4.65
2023-06-12T09:13:12.134Z,6.63
2023-06-12T09:15:41.764Z,4.72
2023-06-12T09:18:12.563Z,4.18
2023-06-12T09:20:43.593Z,3.40
2023-06-12T09:23:13.060Z,3.17
2023-06-12T09:26:09.695Z,4.15
2023-06-12T09:28:38.833Z,5.30
2023-06-12T09:31:06.207Z,7.28
2023-06-12T09:33:33.732Z,7.80
2023-06-12T09:36:01.589Z,3.95
2023-06-12T09:38:33.137Z,5.43
2023-06-12T09:41:01.488Z,5.40
2023-06-12T09:43:29.224Z,3.70
2023-06-12T09:45:57.061Z,4.20
2023-06-12T09:48:24.099Z,5.95
2023-06-12T09:50:51.831Z,6.80
2023-06-12T09:53:22.370Z,4.35
2023-06-12T09:55:50.706Z,4.95
2023-06-12T09:58:20.020Z,4.07
2023-06-12T10:00:48.297Z,5.85
2023-06-12T10:03:16.996Z,3.70
2023-06-12T10:05:51.380Z,4.72
2023-06-12T10:08:18.997Z,5.68
2023-06-12T10:10:46.825Z,3.65
2023-06-12T10:13:14.847Z,4.90
2023-06-12T10:15:41.781Z,3.55
2023-06-12T10:18:10.476Z,8.10
2023-06-12T10:20:38.492Z,6.97
2023-06-12T10:23:05.858Z,7.30
2023-06-12T10:25:33.308Z,5.13
2023-06-12T10:28:02.052Z,3.50
2023-06-12T10:30:28.969Z,6.32
2023-06-12T10:32:56.024Z,5.03
2023-06-12T10:35:31.601Z,3.78
2023-06-12T10:37:58.785Z,5.07
2023-06-12T10:40:42.161Z,3.72
2023-06-12T10:43:13.504Z,3.35
2023-06-12T10:45:40.451Z,6.38
2023-06-12T10:48:07.454Z,7.60
2023-06-12T10:50:36.456Z,5.60
2023-06-12T10:53:05.136Z,4.47
2023-06-12T10:55:34.145Z,3.13
2023-06-12T10:58:04.330Z,3.45
2023-06-12T11:00:43.424Z,4.05
2023-06-12T11:03:13.326Z,3.33
2023-06-12T11:05:47.544Z,3.80
2023-06-12T11:08:14.774Z,5.63
2023-06-12T11:10:41.918Z,5.80
2023-06-12T11:13:08.773Z,3.85
2023-06-12T11:15:46.831Z,6.45
2023-06-12T11:18:15.872Z,4.75
2023-06-12T11:20:43.283Z,5.32
2023-06-12T11:23:10.641Z,4.47
2023-06-12T11:25:47.522Z,4.15
2023-06-12T11:28:16.820Z,4.05
2023-06-12T11:33:24.581Z,4.15
2023-06-12T11:35:59.628Z,4.05
2023-06-12T11:40:56.518Z,4.50
2023-06-12T11:43:25.489Z,4.05
2023-06-12T11:45:56.759Z,6.55
2023-06-12T11:50:54.777Z,6.88
2023-06-12T11:53:22.227Z,3.92
2023-06-12T12:00:50.663Z,3.33
2023-06-12T12:03:18.005Z,4.95
2023-06-12T12:05:45.279Z,6.53
2023-06-12T12:08:13.015Z,8.35
2023-06-12T12:10:41.674Z,4.90
2023-06-12T12:13:08.566Z,3.97
2023-06-12T12:15:41.921Z,5.15
2023-06-12T12:18:16.296Z,3.15
2023-06-12T12:20:44.256Z,5.50
2023-06-12T12:23:15.186Z,3.67
2023-06-12T12:28:09.558Z,3.17
2023-06-12T12:30:37.526Z,5.35
2023-06-12T12:33:04.794Z,4.38
2023-06-12T12:35:31.658Z,5.47
2023-06-12T12:37:59.219Z,4.28
2023-06-12T12:40:28.143Z,4.63
2023-06-12T12:42:55.841Z,3.50
2023-06-12T12:45:23.067Z,3.10
2023-06-12T12:47:50.239Z,5.18
2023-06-12T12:50:22.396Z,5.55
2023-06-12T12:52:51.130Z,4.25
2023-06-12T12:55:18.562Z,4.40
2023-06-12T12:57:48.726Z,7.15
2023-06-12T13:00:19.553Z,18.95
2023-06-12T13:02:47.161Z,6.28
2023-06-12T13:05:16.453Z,7.78
2023-06-12T13:07:45.512Z,5.32
2023-06-12T13:10:15.175Z,4.03
2023-06-12T13:12:42.794Z,5.80
2023-06-12T13:15:11.012Z,6.10
2023-06-12T13:17:38.513Z,5.10
2023-06-12T13:20:06.411Z,5.63
2023-06-12T13:22:33.983Z,3.85
2023-06-12T13:25:01.382Z,6.00
2023-06-12T13:27:28.572Z,5.55
2023-06-12T13:29:55.574Z,5.70
2023-06-12T13:32:23.428Z,5.38
2023-06-12T13:34:50.791Z,4.40
2023-06-12T13:37:18.167Z,4.00
2023-06-12T13:39:45.781Z,4.32
2023-06-12T13:42:12.790Z,5.13
2023-06-12T13:44:41.053Z,3.97
2023-06-12T13:47:09.324Z,5.45
2023-06-12T13:49:38.651Z,4.20
2023-06-12T13:52:08.327Z,4.50
2023-06-12T13:54:35.813Z,3.65
2023-06-12T13:57:06.073Z,7.57
2023-06-12T13:59:33.246Z,4.35
2023-06-12T14:02:00.233Z,5.05
2023-06-12T14:04:27.413Z,5.38
2023-06-12T14:06:55.521Z,4.63
2023-06-12T14:09:22.577Z,5.70
2023-06-12T14:11:49.875Z,5.80
2023-06-12T14:14:16.924Z,4.80
2023-06-12T14:16:43.856Z,6.82
2023-06-12T14:19:10.838Z,4.40
2023-06-12T14:21:37.680Z,4.60
2023-06-12T14:24:05.463Z,5.97
2023-06-12T14:26:33.402Z,7.80
2023-06-12T14:29:00.751Z,4.35
2023-06-12T14:31:28.116Z,5.78
2023-06-12T14:33:55.118Z,5.93
2023-06-12T14:36:22.280Z,4.80
2023-06-12T14:38:49.369Z,5.53
2023-06-12T14:41:16.385Z,6.30
2023-06-12T14:43:43.796Z,4.97
2023-06-12T14:46:10.988Z,6.10
2023-06-12T14:48:37.944Z,4.88
2023-06-12T14:51:05.081Z,4.80
2023-06-12T14:53:34.162Z,7.80
2023-06-12T14:56:03.510Z,3.50
2023-06-12T14:58:30.747Z,4.97
2023-06-12T15:00:57.812Z,5.38
2023-06-12T15:03:25.074Z,6.53
2023-06-12T15:05:52.034Z,4.47
2023-06-12T15:08:18.979Z,3.42
2023-06-12T15:10:45.997Z,5.35
2023-06-12T15:13:12.949Z,7.15
2023-06-12T15:15:40.022Z,4.22
2023-06-12T15:18:07.004Z,4.18
2023-06-12T15:20:33.987Z,4.95
2023-06-12T15:23:00.931Z,4.68
2023-06-12T15:25:30.672Z,6.93
2023-06-12T15:27:57.612Z,5.05
2023-06-12T15:30:24.445Z,4.43
2023-06-12T15:32:52.034Z,5.82
2023-06-12T15:35:20.404Z,5.15
2023-06-12T15:37:47.211Z,5.03
2023-06-12T15:40:14.275Z,4.03
2023-06-12T15:42:41.655Z,5.65
2023-06-12T15:45:11.717Z,5.50
2023-06-12T15:47:39.083Z,9.65
2023-06-12T15:50:07.217Z,5.93
2023-06-12T15:52:34.088Z,3.45
2023-06-12T15:55:01.250Z,4.43
2023-06-12T15:57:28.120Z,3.55
2023-06-12T15:59:54.927Z,6.43
2023-06-12T16:02:22.455Z,5.70
2023-06-12T16:04:49.581Z,4.88
2023-06-12T16:07:16.786Z,3.67
2023-06-12T16:09:43.727Z,3.47
2023-06-12T16:12:10.963Z,6.07
2023-06-12T16:14:37.861Z,3.53
2023-06-12T16:17:05.434Z,6.82
2023-06-12T16:19:34.386Z,3.63
2023-06-12T16:22:01.262Z,5.75
2023-06-12T16:24:28.478Z,5.78
2023-06-12T16:26:55.992Z,7.40
2023-06-12T16:29:23.078Z,5.40
2023-06-12T16:31:52.550Z,4.70
2023-06-12T16:34:23.055Z,11.43
2023-06-12T16:36:50.189Z,7.03
2023-06-12T16:39:19.585Z,5.00
2023-06-12T16:41:46.606Z,5.25
2023-06-12T16:44:14.616Z,3.60
2023-06-12T16:46:41.540Z,5.00
2023-06-12T16:49:10.910Z,8.52
2023-06-12T16:51:43.374Z,7.28
2023-06-12T16:54:25.270Z,4.80
2023-06-12T16:56:54.426Z,4.60
2023-06-12T16:59:21.403Z,6.72
2023-06-12T17:01:48.387Z,9.85
2023-06-12T17:04:15.874Z,7.07
2023-06-12T17:06:44.530Z,7.88
2023-06-12T17:09:13.115Z,7.35
2023-06-12T17:11:40.127Z,6.28
2023-06-12T17:14:07.158Z,8.95
2023-06-12T17:16:34.736Z,7.95
2023-06-12T17:19:01.750Z,5.20
2023-06-12T17:21:29.603Z,8.40
2023-06-12T17:23:58.412Z,7.28
2023-06-12T17:26:25.590Z,7.15
2023-06-12T17:28:52.360Z,7.63
2023-06-12T17:31:19.465Z,5.63
2023-06-12T17:33:46.332Z,6.85
2023-06-12T17:36:13.266Z,8.38
2023-06-12T17:38:40.055Z,6.10
2023-06-12T17:41:07.122Z,5.65
2023-06-12T17:43:33.998Z,6.47
2023-06-12T17:46:02.350Z,5.90
2023-06-12T17:48:30.930Z,6.82
2023-06-12T17:50:57.887Z,9.00
2023-06-12T17:53:24.948Z,5.57
2023-06-12T17:55:52.224Z,6.30
2023-06-12T17:58:19.336Z,5.40
2023-06-12T18:00:46.739Z,8.95
2023-06-12T18:03:14.259Z,6.22
2023-06-12T18:05:41.465Z,7.15
2023-06-12T18:08:08.770Z,6.50
2023-06-12T18:10:37.095Z,7.80
2023-06-12T18:13:04.198Z,5.50
2023-06-12T18:15:31.154Z,9.30
2023-06-12T18:17:58.226Z,6.22
2023-06-12T18:20:25.178Z,6.28
2023-06-12T18:22:52.564Z,8.13
2023-06-12T18:25:19.843Z,6.78
2023-06-12T18:27:46.729Z,10.10
2023-06-12T18:30:13.819Z,6.90
2023-06-12T18:32:40.756Z,7.38
2023-06-12T18:35:09.524Z,6.68
2023-06-12T18:37:37.085Z,7.82
2023-06-12T18:40:04.328Z,5.50
2023-06-12T18:42:31.267Z,6.35
2023-06-12T18:45:01.327Z,5.70
2023-06-12T18:47:28.369Z,6.25
2023-06-12T18:49:55.229Z,7.63
2023-06-12T18:52:22.146Z,8.43
2023-06-12T18:54:51.209Z,5.85
2023-06-12T18:57:18.468Z,5.47
2023-06-12T18:59:45.551Z,5.88
2023-06-12T19:02:12.407Z,7.55
2023-06-12T19:04:39.340Z,7.68
2023-06-12T19:07:09.648Z,4.90
2023-06-12T19:09:37.313Z,12.05
2023-06-12T19:12:04.651Z,6.20
2023-06-12T19:14:31.942Z,6.53
2023-06-12T19:16:59.263Z,5.53
2023-06-12T19:19:26.195Z,6.20
2023-06-12T19:21:53.052Z,5.25
2023-06-12T19:24:19.971Z,7.32
2023-06-12T19:26:46.905Z,8.38
2023-06-12T19:29:16.769Z,8.68
2023-06-12T19:31:45.108Z,8.60
2023-06-12T19:34:12.180Z,8.85
2023-06-12T19:37:16.198Z,9.38
2023-06-12T19:39:43.842Z,8.02
2023-06-12T19:42:11.600Z,6.57
2023-06-12T19:44:39.134Z,6.00
2023-06-12T19:47:07.335Z,6.00
2023-06-12T19:49:35.505Z,6.38
2023-06-12T19:52:02.522Z,6.25
2023-06-12T19:54:32.556Z,7.35
2023-06-12T19:57:01.182Z,6.30
2023-06-12T19:59:28.540Z,6.25
2023-06-12T20:01:55.555Z,6.35
2023-06-12T20:04:22.710Z,8.43
2023-06-12T20:06:49.694Z,7.65
2023-06-12T20:09:16.684Z,8.20
2023-06-12T20:11:43.623Z,10.48
2023-06-12T20:14:10.478Z,8.15
2023-06-12T20:16:37.477Z,11.15
2023-06-12T20:19:05.474Z,13.10
2023-06-12T20:21:32.782Z,10.20
2023-06-12T20:24:00.033Z,10.88
2023-06-12T20:26:28.466Z,10.27
2023-06-12T20:28:55.578Z,8.65
2023-06-12T20:31:22.609Z,10.80
2023-06-12T20:33:49.615Z,9.55
2023-06-12T20:36:16.555Z,8.32
2023-06-12T20:38:43.821Z,8.73
2023-06-12T20:41:11.704Z,10.05
2023-06-12T20:43:38.737Z,9.70
2023-06-12T20:46:06.246Z,10.40
2023-06-12T20:48:36.590Z,9.48
2023-06-12T20:51:05.398Z,9.43
2023-06-12T20:53:35.486Z,9.23
2023-06-12T20:56:02.444Z,12.88
2023-06-12T20:58:29.374Z,10.23
2023-06-12T21:00:57.022Z,12.25
2023-06-12T21:03:24.452Z,15.77
2023-06-12T21:05:51.507Z,12.45
2023-06-12T21:08:18.350Z,13.63
2023-06-12T21:10:45.377Z,12.73
2023-06-12T21:13:12.670Z,10.95
2023-06-12T21:15:41.902Z,10.93
2023-06-12T21:18:09.550Z,11.68
2023-06-12T21:20:36.658Z,10.75
2023-06-12T21:23:04.097Z,10.77
2023-06-12T21:25:31.790Z,11.27
2023-06-12T21:27:58.757Z,11.70
2023-06-12T21:30:27.413Z,11.18
2023-06-12T21:32:54.718Z,12.52
2023-06-12T21:35:21.663Z,10.52
2023-06-12T21:37:48.704Z,12.27
2023-06-12T21:40:16.130Z,12.50
2023-06-12T21:42:43.044Z,12.07
2023-06-12T21:45:11.365Z,11.90
2023-06-12T21:47:39.254Z,10.93
2023-06-12T21:50:07.111Z,10.70
2023-06-12T21:52:34.036Z,11.32
2023-06-12T21:55:00.854Z,11.00
2023-06-12T21:57:28.325Z,8.65
2023-06-12T21:59:55.181Z,9.52
2023-06-12T22:02:22.105Z,9.05
2023-06-12T22:04:49.227Z,10.90
2023-06-12T22:07:16.535Z,8.82
2023-06-12T22:09:43.402Z,9.02
2023-06-12T22:12:10.594Z,10.20
2023-06-12T22:14:37.534Z,9.30
2023-06-12T22:17:04.578Z,8.70
2023-06-12T22:19:31.580Z,11.23
2023-06-12T22:21:58.497Z,8.55
2023-06-12T22:24:25.392Z,8.25
2023-06-12T22:26:52.281Z,8.05
2023-06-12T22:29:19.196Z,10.38
2023-06-12T22:31:46.062Z,12.30
2023-06-12T22:34:13.317Z,10.18
2023-06-12T22:36:40.493Z,8.60
2023-06-12T22:39:08.484Z,8.98
2023-06-12T22:41:35.288Z,10.25
2023-06-12T22:44:02.227Z,8.23
2023-06-12T22:46:29.178Z,8.05
2023-06-12T22:48:58.137Z,9.00
2023-06-12T22:51:25.096Z,7.60
2023-06-12T22:53:52.169Z,7.78
2023-06-12T22:56:19.285Z,8.18
2023-06-12T22:58:47.364Z,7.00
2023-06-12T23:01:14.167Z,7.70
2023-06-12T23:03:41.008Z,8.02
2023-06-12T23:06:07.890Z,7.20
2023-06-12T23:08:34.773Z,7.03
2023-06-12T23:11:01.847Z,9.77
2023-06-12T23:13:29.022Z,9.57
2023-06-12T23:15:57.654Z,7.60
2023-06-12T23:18:31.106Z,8.05
2023-06-12T23:21:01.043Z,7.57
2023-06-12T23:23:31.236Z,8.73
2023-06-12T23:25:59.147Z,7.88
2023-06-12T23:28:26.672Z,9.40
2023-06-12T23:30:56.466Z,8.93
2023-06-12T23:33:23.380Z,8.50
2023-06-12T23:35:51.790Z,9.75
2023-06-12T23:38:18.926Z,10.68
2023-06-12T23:40:45.769Z,8.65
2023-06-12T23:43:15.042Z,8.15
2023-06-12T23:45:42.133Z,10.38
2023-06-12T23:48:09.862Z,8.73
2023-06-12T23:50:36.889Z,8.35
2023-06-12T23:53:03.884Z,9.05
2023-06-12T23:55:30.875Z,12.15
2023-06-12T23:57:57.840Z,10.27
